Capitol Logistics 7386

Operating for MZN



KPDX
Portland International Airport
Portland, Oregon
KRIV
March Air Reserve Base
Riverside, California

Activity Log

Date Flight Route Aircraft Duration
02/01/2020 CPX453 CASCD2 JOGEN Q7 AVE J6 PMD MARCH4 B738 2h 10m
01/05/2020 CPX453 N0452F410 CASCD2 DSD FRA LANDO J6 PMD MARCH4 B738 2h 18m
09/13/2019 CPX453 CASCD2 PAWLI Q11 PUSHH PMD MARCH4 B738 2h 12m
08/31/2019 CPX453 CASCD2 JOGEN Q7 AVE J6 PMD MARCH4 B738 2h 10m

Route Details

Aircraft Information
Primary: Boeing 737-800BCF
Backup: Boeing 757-200SF
Route Data
Distance: 745nm
Duration: 2h 02m
Recm'd Route: BTG J67 LKV J5 EHF PMD MARCH4
Origin Wx: KPDX 141953Z 36005KT 10SM CLR 18/M05 A3012 RMK AO2 SLP199 T01781050
Dest. Wx: KRIV 141958Z 32007KT 10SM SCT045 BKN250 17/05 A2996 RMK AO2A SLP141 T01720052
Notes: